Airfield :







YOU CAN JOIN US ON...

 
LOGIN :

Register | Disclaimer

   EN    FR    IT 

 









Legend :    VFR   Marginal VFR   IFR   Intensive IFR   Very Intensive IFR
Visi :
Ceiling :
>= 8 km
>= 3000ft
5 to 8 km
1000 to 3000 ft
1500m to 5 km
500 to 1000 ft
800 to 1500m
200 to 500 ft
< 800m
< 200 ft
Symbols :   Thunderstorms  Fog  Heavy snow  Heavy precipitations  Wind > 20 kt






- Airport Elevation : 84 ft
- IATA code : YJT


CYJT - Stephenville

CURRENT METAR :
  • 281200Z 27018KT 4SM -SN DRSN BKN019 OVC028 M02/M03 A2964 RMK SC5SC2 /S02/ SLP041

EXPIRED METARs :
  • 281100Z 25018KT 4SM -SN DRSN FEW009 BKN017 OVC027 M02/M03 A2960 RMK SF1SC4SC3 SLP026
  • 281000Z 25018KT 3SM -SN DRSN FEW009 BKN016 OVC030 M02/M03 A2956 RMK SF2SC4SC2 SLP011

TAF TAF CYJT
Valid from the 28 at 12:00 until the 29 at 12:00 UTC


281138Z 2812/2912 26018G28KT 6SM -SN FEW009 BKN015 OVC025
TEMPO 2812/2814 21/2SM -SN
FM281400 28015G25KT 4SM -SHSN BKN015 OVC025
TEMPO 2814/2819 P6SM -SN SCT015 BKN025
FM281900 29012G22KT P6SM BKN025
FM282300 31008KT P6SM SCT030 RMK NXT FCST BY 281800Z



MET'MAP, your aeronautical weather chart ! - Copyright ORBIFLY December 2007 - Disclaimer

ORBIFLY MET'MAP TEAM :

Programming & Development : Alexandra Zaïnal
Concept & original design : Baudouin d'Aumeries
Assistance for programming : Marc-Olivier Méhu
Technical & hardware support : Manuel Goepfert

Contact : metmap@orbifly.com




SOURCES & CREDITS :

   NOAA